sensor_id;sensor_type;location;lat;lon;timestamp;P1;durP1;ratioP1;P2;durP2;ratioP2
15516;SDS011;7860;52.030;5.572;2023-07-29T00:04:48;3.93;;;1.56;;
15516;SDS011;7860;52.030;5.572;2023-07-29T00:04:49;3.35;;;1.64;;
15516;SDS011;7860;52.030;5.572;2023-07-29T00:04:49;3.40;;;1.65;;
15516;SDS011;7860;52.030;5.572;2023-07-29T00:05:15;3.52;;;1.71;;
15516;SDS011;7860;52.030;5.572;2023-07-29T00:06:15;3.36;;;1.55;;
15516;SDS011;7860;52.030;5.572;2023-07-29T00:07:15;2.98;;;1.60;;
15516;SDS011;7860;52.030;5.572;2023-07-29T00:08:15;4.24;;;1.63;;
15516;SDS011;7860;52.030;5.572;2023-07-29T00:09:15;4.72;;;1.61;;
15516;SDS011;7860;52.030;5.572;2023-07-29T00:10:15;4.15;;;1.95;;
15516;SDS011;7860;52.030;5.572;2023-07-29T00:11:15;3.62;;;1.45;;
15516;SDS011;7860;52.030;5.572;2023-07-29T00:12:15;3.80;;;1.52;;
15516;SDS011;7860;52.030;5.572;2023-07-29T00:13:16;3.76;;;1.74;;
15516;SDS011;7860;52.030;5.572;2023-07-29T00:14:16;3.77;;;1.65;;
15516;SDS011;7860;52.030;5.572;2023-07-29T00:15:16;2.96;;;1.51;;
15516;SDS011;7860;52.030;5.572;2023-07-29T00:16:16;3.99;;;1.60;;
15516;SDS011;7860;52.030;5.572;2023-07-29T00:17:16;3.97;;;1.57;;
15516;SDS011;7860;52.030;5.572;2023-07-29T00:18:16;5.09;;;1.67;;
15516;SDS011;7860;52.030;5.572;2023-07-29T00:19:16;4.86;;;1.89;;
15516;SDS011;7860;52.030;5.572;2023-07-29T00:20:16;3.10;;;1.57;;
15516;SDS011;7860;52.030;5.572;2023-07-29T00:21:16;3.90;;;1.62;;
15516;SDS011;7860;52.030;5.572;2023-07-29T00:22:16;3.37;;;1.68;;
15516;SDS011;7860;52.030;5.572;2023-07-29T00:23:17;4.18;;;1.61;;
15516;SDS011;7860;52.030;5.572;2023-07-29T00:24:16;5.50;;;1.73;;
15516;SDS011;7860;52.030;5.572;2023-07-29T00:25:17;2.37;;;1.39;;
15516;SDS011;7860;52.030;5.572;2023-07-29T00:26:17;4.54;;;1.91;;
15516;SDS011;7860;52.030;5.572;2023-07-29T00:27:17;4.15;;;1.90;;
15516;SDS011;7860;52.030;5.572;2023-07-29T00:28:17;2.94;;;1.36;;
15516;SDS011;7860;52.030;5.572;2023-07-29T00:29:17;3.28;;;1.52;;
15516;SDS011;7860;52.030;5.572;2023-07-29T00:30:17;5.27;;;1.57;;
15516;SDS011;7860;52.030;5.572;2023-07-29T00:31:17;2.70;;;1.59;;
15516;SDS011;7860;52.030;5.572;2023-07-29T00:32:17;3.18;;;1.39;;
15516;SDS011;7860;52.030;5.572;2023-07-29T00:33:17;3.52;;;1.60;;
15516;SDS011;7860;52.030;5.572;2023-07-29T00:34:17;3.44;;;1.58;;
15516;SDS011;7860;52.030;5.572;2023-07-29T00:35:17;3.85;;;1.77;;
15516;SDS011;7860;52.030;5.572;2023-07-29T00:36:18;5.51;;;1.59;;
15516;SDS011;7860;52.030;5.572;2023-07-29T00:37:18;5.09;;;1.72;;
15516;SDS011;7860;52.030;5.572;2023-07-29T00:38:18;3.92;;;1.47;;
15516;SDS011;7860;52.030;5.572;2023-07-29T00:39:18;4.00;;;1.72;;
15516;SDS011;7860;52.030;5.572;2023-07-29T00:40:19;1.97;;;1.40;;
15516;SDS011;7860;52.030;5.572;2023-07-29T00:41:18;3.27;;;1.53;;
15516;SDS011;7860;52.030;5.572;2023-07-29T00:42:18;3.49;;;1.64;;
15516;SDS011;7860;52.030;5.572;2023-07-29T00:43:18;4.24;;;1.50;;
15516;SDS011;7860;52.030;5.572;2023-07-29T00:44:18;3.54;;;1.68;;
15516;SDS011;7860;52.030;5.572;2023-07-29T00:45:18;3.32;;;1.50;;
15516;SDS011;7860;52.030;5.572;2023-07-29T00:46:18;3.92;;;1.58;;
15516;SDS011;7860;52.030;5.572;2023-07-29T00:47:18;4.33;;;1.63;;
15516;SDS011;7860;52.030;5.572;2023-07-29T00:48:19;5.04;;;1.88;;
15516;SDS011;7860;52.030;5.572;2023-07-29T00:49:19;4.49;;;1.90;;
15516;SDS011;7860;52.030;5.572;2023-07-29T00:50:19;3.94;;;1.74;;
15516;SDS011;7860;52.030;5.572;2023-07-29T00:51:19;3.73;;;1.67;;
15516;SDS011;7860;52.030;5.572;2023-07-29T00:52:19;5.42;;;1.81;;
15516;SDS011;7860;52.030;5.572;2023-07-29T00:53:19;4.29;;;1.79;;
15516;SDS011;7860;52.030;5.572;2023-07-29T00:54:19;4.50;;;2.14;;
15516;SDS011;7860;52.030;5.572;2023-07-29T00:55:19;4.23;;;1.73;;
15516;SDS011;7860;52.030;5.572;2023-07-29T00:56:19;3.92;;;1.79;;
15516;SDS011;7860;52.030;5.572;2023-07-29T00:57:19;3.76;;;1.74;;
15516;SDS011;7860;52.030;5.572;2023-07-29T00:58:19;3.25;;;1.63;;
15516;SDS011;7860;52.030;5.572;2023-07-29T00:59:19;3.45;;;1.62;;
15516;SDS011;7860;52.030;5.572;2023-07-29T01:00:20;4.46;;;1.82;;
15516;SDS011;7860;52.030;5.572;2023-07-29T01:01:20;5.05;;;1.96;;
15516;SDS011;7860;52.030;5.572;2023-07-29T01:02:20;4.66;;;1.87;;
15516;SDS011;7860;52.030;5.572;2023-07-29T01:03:20;4.54;;;1.87;;
15516;SDS011;7860;52.030;5.572;2023-07-29T01:04:20;5.68;;;1.78;;
15516;SDS011;7860;52.030;5.572;2023-07-29T01:05:20;4.12;;;1.74;;
15516;SDS011;7860;52.030;5.572;2023-07-29T01:06:23;4.16;;;1.84;;
15516;SDS011;7860;52.030;5.572;2023-07-29T01:07:21;5.70;;;1.95;;
15516;SDS011;7860;52.030;5.572;2023-07-29T01:08:21;5.80;;;1.97;;
15516;SDS011;7860;52.030;5.572;2023-07-29T01:09:23;3.97;;;1.83;;
15516;SDS011;7860;52.030;5.572;2023-07-29T01:10:24;5.86;;;1.97;;
15516;SDS011;7860;52.030;5.572;2023-07-29T01:11:24;4.87;;;1.78;;
15516;SDS011;7860;52.030;5.572;2023-07-29T01:12:22;4.33;;;1.97;;
15516;SDS011;7860;52.030;5.572;2023-07-29T01:13:22;4.33;;;1.73;;
15516;SDS011;7860;52.030;5.572;2023-07-29T01:14:21;3.66;;;1.76;;
15516;SDS011;7860;52.030;5.572;2023-07-29T01:15:21;5.01;;;1.94;;
15516;SDS011;7860;52.030;5.572;2023-07-29T01:16:23;4.90;;;1.80;;
15516;SDS011;7860;52.030;5.572;2023-07-29T01:17:22;5.45;;;1.86;;
15516;SDS011;7860;52.030;5.572;2023-07-29T01:18:22;5.24;;;2.02;;
15516;SDS011;7860;52.030;5.572;2023-07-29T01:19:25;5.33;;;2.00;;
15516;SDS011;7860;52.030;5.572;2023-07-29T01:20:21;4.43;;;1.79;;
15516;SDS011;7860;52.030;5.572;2023-07-29T01:21:21;5.18;;;2.03;;
15516;SDS011;7860;52.030;5.572;2023-07-29T01:22:21;5.12;;;2.02;;
15516;SDS011;7860;52.030;5.572;2023-07-29T01:23:23;8.21;;;2.08;;
15516;SDS011;7860;52.030;5.572;2023-07-29T01:24:21;7.97;;;2.08;;
15516;SDS011;7860;52.030;5.572;2023-07-29T01:25:22;5.28;;;2.01;;
15516;SDS011;7860;52.030;5.572;2023-07-29T01:26:22;4.22;;;1.87;;
15516;SDS011;7860;52.030;5.572;2023-07-29T01:27:22;5.97;;;1.92;;
15516;SDS011;7860;52.030;5.572;2023-07-29T01:28:22;5.32;;;2.28;;
15516;SDS011;7860;52.030;5.572;2023-07-29T01:29:22;7.08;;;2.13;;
15516;SDS011;7860;52.030;5.572;2023-07-29T01:30:22;4.78;;;2.17;;
15516;SDS011;7860;52.030;5.572;2023-07-29T01:31:23;5.87;;;2.16;;
15516;SDS011;7860;52.030;5.572;2023-07-29T01:32:25;5.51;;;2.18;;
15516;SDS011;7860;52.030;5.572;2023-07-29T01:33:23;6.23;;;2.08;;
15516;SDS011;7860;52.030;5.572;2023-07-29T01:34:23;6.02;;;2.38;;
15516;SDS011;7860;52.030;5.572;2023-07-29T01:35:23;6.40;;;2.37;;
15516;SDS011;7860;52.030;5.572;2023-07-29T01:36:23;5.70;;;2.09;;
15516;SDS011;7860;52.030;5.572;2023-07-29T01:37:24;4.35;;;2.19;;
15516;SDS011;7860;52.030;5.572;2023-07-29T01:38:24;7.45;;;2.23;;
15516;SDS011;7860;52.030;5.572;2023-07-29T01:39:23;4.75;;;2.29;;
15516;SDS011;7860;52.030;5.572;2023-07-29T01:40:23;6.05;;;2.13;;
15516;SDS011;7860;52.030;5.572;2023-07-29T01:41:23;5.81;;;2.26;;
15516;SDS011;7860;52.030;5.572;2023-07-29T01:42:23;3.44;;;1.91;;
15516;SDS011;7860;52.030;5.572;2023-07-29T01:43:23;5.52;;;2.07;;
15516;SDS011;7860;52.030;5.572;2023-07-29T01:44:23;4.58;;;2.19;;
15516;SDS011;7860;52.030;5.572;2023-07-29T01:45:24;7.22;;;2.57;;
15516;SDS011;7860;52.030;5.572;2023-07-29T01:46:23;6.81;;;2.56;;
15516;SDS011;7860;52.030;5.572;2023-07-29T01:47:23;5.15;;;2.40;;
15516;SDS011;7860;52.030;5.572;2023-07-29T01:48:24;6.95;;;2.58;;
15516;SDS011;7860;52.030;5.572;2023-07-29T01:49:24;6.39;;;2.85;;
15516;SDS011;7860;52.030;5.572;2023-07-29T01:50:24;6.40;;;3.17;;
15516;SDS011;7860;52.030;5.572;2023-07-29T01:51:24;5.69;;;2.55;;
15516;SDS011;7860;52.030;5.572;2023-07-29T01:52:24;7.48;;;2.96;;
15516;SDS011;7860;52.030;5.572;2023-07-29T01:53:24;7.25;;;2.76;;
15516;SDS011;7860;52.030;5.572;2023-07-29T01:54:24;7.61;;;2.94;;
15516;SDS011;7860;52.030;5.572;2023-07-29T01:55:24;7.09;;;2.86;;
15516;SDS011;7860;52.030;5.572;2023-07-29T01:56:24;7.61;;;3.05;;
15516;SDS011;7860;52.030;5.572;2023-07-29T01:57:24;7.06;;;3.07;;
15516;SDS011;7860;52.030;5.572;2023-07-29T01:58:24;8.38;;;3.13;;
15516;SDS011;7860;52.030;5.572;2023-07-29T01:59:25;7.70;;;3.13;;
15516;SDS011;7860;52.030;5.572;2023-07-29T02:00:25;7.78;;;3.03;;
15516;SDS011;7860;52.030;5.572;2023-07-29T02:01:25;8.81;;;3.36;;
15516;SDS011;7860;52.030;5.572;2023-07-29T02:02:25;6.84;;;3.06;;
15516;SDS011;7860;52.030;5.572;2023-07-29T02:03:25;7.37;;;3.15;;
15516;SDS011;7860;52.030;5.572;2023-07-29T02:04:25;7.89;;;3.38;;
15516;SDS011;7860;52.030;5.572;2023-07-29T02:05:25;7.46;;;3.40;;
15516;SDS011;7860;52.030;5.572;2023-07-29T02:06:25;7.62;;;3.28;;
15516;SDS011;7860;52.030;5.572;2023-07-29T02:07:25;8.75;;;3.17;;
15516;SDS011;7860;52.030;5.572;2023-07-29T02:08:25;7.83;;;3.48;;
15516;SDS011;7860;52.030;5.572;2023-07-29T02:09:25;7.18;;;3.25;;
15516;SDS011;7860;52.030;5.572;2023-07-29T02:10:26;7.20;;;3.42;;
15516;SDS011;7860;52.030;5.572;2023-07-29T02:11:26;8.24;;;3.44;;
15516;SDS011;7860;52.030;5.572;2023-07-29T02:12:26;9.15;;;3.64;;
15516;SDS011;7860;52.030;5.572;2023-07-29T02:13:26;7.53;;;3.51;;
15516;SDS011;7860;52.030;5.572;2023-07-29T02:14:26;9.18;;;3.54;;
15516;SDS011;7860;52.030;5.572;2023-07-29T02:15:26;7.51;;;3.42;;
15516;SDS011;7860;52.030;5.572;2023-07-29T02:16:26;8.96;;;3.70;;
15516;SDS011;7860;52.030;5.572;2023-07-29T02:17:26;7.34;;;3.65;;
15516;SDS011;7860;52.030;5.572;2023-07-29T02:18:26;8.55;;;3.74;;
15516;SDS011;7860;52.030;5.572;2023-07-29T02:19:26;8.90;;;4.00;;
15516;SDS011;7860;52.030;5.572;2023-07-29T02:20:26;8.99;;;3.47;;
15516;SDS011;7860;52.030;5.572;2023-07-29T02:21:26;8.91;;;3.48;;
15516;SDS011;7860;52.030;5.572;2023-07-29T02:22:26;8.93;;;3.71;;
15516;SDS011;7860;52.030;5.572;2023-07-29T02:23:27;7.80;;;3.71;;
15516;SDS011;7860;52.030;5.572;2023-07-29T02:24:27;8.57;;;3.50;;
15516;SDS011;7860;52.030;5.572;2023-07-29T02:25:27;9.73;;;3.83;;
15516;SDS011;7860;52.030;5.572;2023-07-29T02:26:27;9.12;;;3.81;;
15516;SDS011;7860;52.030;5.572;2023-07-29T02:27:27;9.27;;;3.70;;
15516;SDS011;7860;52.030;5.572;2023-07-29T02:28:27;8.27;;;3.67;;
15516;SDS011;7860;52.030;5.572;2023-07-29T02:29:27;7.24;;;3.43;;
15516;SDS011;7860;52.030;5.572;2023-07-29T02:30:27;10.50;;;4.03;;
15516;SDS011;7860;52.030;5.572;2023-07-29T02:31:27;9.76;;;4.04;;
15516;SDS011;7860;52.030;5.572;2023-07-29T02:32:27;11.48;;;4.07;;
15516;SDS011;7860;52.030;5.572;2023-07-29T02:33:27;8.87;;;3.83;;
15516;SDS011;7860;52.030;5.572;2023-07-29T02:34:27;10.15;;;4.18;;
15516;SDS011;7860;52.030;5.572;2023-07-29T02:35:27;7.94;;;3.90;;
15516;SDS011;7860;52.030;5.572;2023-07-29T02:36:28;10.24;;;4.10;;
15516;SDS011;7860;52.030;5.572;2023-07-29T02:37:28;8.85;;;4.01;;
15516;SDS011;7860;52.030;5.572;2023-07-29T02:38:28;9.50;;;4.11;;
15516;SDS011;7860;52.030;5.572;2023-07-29T02:39:28;11.10;;;4.14;;
15516;SDS011;7860;52.030;5.572;2023-07-29T02:40:28;9.08;;;4.29;;
15516;SDS011;7860;52.030;5.572;2023-07-29T02:41:28;8.49;;;4.00;;
15516;SDS011;7860;52.030;5.572;2023-07-29T02:42:28;7.88;;;3.96;;
15516;SDS011;7860;52.030;5.572;2023-07-29T02:43:28;8.15;;;3.93;;
15516;SDS011;7860;52.030;5.572;2023-07-29T02:44:28;10.53;;;3.99;;
15516;SDS011;7860;52.030;5.572;2023-07-29T02:45:28;8.20;;;3.86;;
15516;SDS011;7860;52.030;5.572;2023-07-29T02:46:28;9.94;;;4.41;;
15516;SDS011;7860;52.030;5.572;2023-07-29T02:47:28;8.82;;;3.91;;
15516;SDS011;7860;52.030;5.572;2023-07-29T02:48:29;10.04;;;3.84;;
15516;SDS011;7860;52.030;5.572;2023-07-29T02:49:29;8.33;;;3.99;;
15516;SDS011;7860;52.030;5.572;2023-07-29T02:50:29;10.05;;;4.28;;
15516;SDS011;7860;52.030;5.572;2023-07-29T02:51:29;8.33;;;4.15;;
15516;SDS011;7860;52.030;5.572;2023-07-29T02:52:29;9.33;;;4.03;;
15516;SDS011;7860;52.030;5.572;2023-07-29T02:53:29;7.89;;;3.99;;
15516;SDS011;7860;52.030;5.572;2023-07-29T02:54:29;9.46;;;4.54;;
15516;SDS011;7860;52.030;5.572;2023-07-29T02:55:29;10.02;;;4.13;;
15516;SDS011;7860;52.030;5.572;2023-07-29T02:56:29;9.55;;;4.21;;
15516;SDS011;7860;52.030;5.572;2023-07-29T02:57:29;10.30;;;4.35;;
15516;SDS011;7860;52.030;5.572;2023-07-29T02:58:29;8.90;;;3.96;;
15516;SDS011;7860;52.030;5.572;2023-07-29T02:59:29;9.27;;;4.04;;
15516;SDS011;7860;52.030;5.572;2023-07-29T03:00:30;9.07;;;4.27;;
15516;SDS011;7860;52.030;5.572;2023-07-29T03:01:30;9.52;;;4.30;;
15516;SDS011;7860;52.030;5.572;2023-07-29T03:02:30;9.74;;;4.23;;
15516;SDS011;7860;52.030;5.572;2023-07-29T03:03:30;8.56;;;3.82;;
15516;SDS011;7860;52.030;5.572;2023-07-29T03:04:30;7.64;;;3.61;;
15516;SDS011;7860;52.030;5.572;2023-07-29T03:05:30;8.66;;;3.68;;
15516;SDS011;7860;52.030;5.572;2023-07-29T03:06:30;9.02;;;3.74;;
15516;SDS011;7860;52.030;5.572;2023-07-29T03:07:30;7.21;;;3.68;;
15516;SDS011;7860;52.030;5.572;2023-07-29T03:08:30;8.50;;;3.87;;
15516;SDS011;7860;52.030;5.572;2023-07-29T03:09:30;8.90;;;3.78;;
15516;SDS011;7860;52.030;5.572;2023-07-29T03:10:30;9.00;;;3.95;;
15516;SDS011;7860;52.030;5.572;2023-07-29T03:11:30;8.51;;;3.98;;
15516;SDS011;7860;52.030;5.572;2023-07-29T03:12:30;8.84;;;4.04;;
15516;SDS011;7860;52.030;5.572;2023-07-29T03:13:30;10.78;;;4.16;;
15516;SDS011;7860;52.030;5.572;2023-07-29T03:14:31;11.06;;;3.80;;
15516;SDS011;7860;52.030;5.572;2023-07-29T03:15:31;13.06;;;4.17;;
15516;SDS011;7860;52.030;5.572;2023-07-29T03:16:31;7.83;;;3.77;;
15516;SDS011;7860;52.030;5.572;2023-07-29T03:17:31;8.76;;;3.72;;
15516;SDS011;7860;52.030;5.572;2023-07-29T03:18:31;7.76;;;3.65;;
15516;SDS011;7860;52.030;5.572;2023-07-29T03:19:31;10.07;;;3.85;;
15516;SDS011;7860;52.030;5.572;2023-07-29T03:20:31;7.19;;;3.62;;
15516;SDS011;7860;52.030;5.572;2023-07-29T03:21:31;7.95;;;3.48;;
15516;SDS011;7860;52.030;5.572;2023-07-29T03:22:31;7.28;;;3.48;;
15516;SDS011;7860;52.030;5.572;2023-07-29T03:23:32;7.71;;;3.37;;
15516;SDS011;7860;52.030;5.572;2023-07-29T03:24:31;7.58;;;3.54;;
15516;SDS011;7860;52.030;5.572;2023-07-29T03:25:31;7.51;;;3.43;;
15516;SDS011;7860;52.030;5.572;2023-07-29T03:26:31;9.13;;;3.82;;
15516;SDS011;7860;52.030;5.572;2023-07-29T03:27:31;7.81;;;3.44;;
15516;SDS011;7860;52.030;5.572;2023-07-29T03:28:32;8.55;;;3.55;;
15516;SDS011;7860;52.030;5.572;2023-07-29T03:29:32;7.23;;;3.36;;
15516;SDS011;7860;52.030;5.572;2023-07-29T03:30:32;8.55;;;3.53;;
15516;SDS011;7860;52.030;5.572;2023-07-29T03:31:32;8.02;;;3.39;;
15516;SDS011;7860;52.030;5.572;2023-07-29T03:32:32;7.57;;;3.39;;
15516;SDS011;7860;52.030;5.572;2023-07-29T03:33:32;7.07;;;3.35;;
15516;SDS011;7860;52.030;5.572;2023-07-29T03:34:32;7.35;;;3.36;;
15516;SDS011;7860;52.030;5.572;2023-07-29T03:35:32;8.01;;;3.34;;
15516;SDS011;7860;52.030;5.572;2023-07-29T03:36:32;8.13;;;3.36;;
15516;SDS011;7860;52.030;5.572;2023-07-29T03:37:32;8.34;;;3.45;;
15516;SDS011;7860;52.030;5.572;2023-07-29T03:38:32;5.86;;;3.11;;
15516;SDS011;7860;52.030;5.572;2023-07-29T03:39:32;8.44;;;3.43;;
15516;SDS011;7860;52.030;5.572;2023-07-29T03:40:32;7.71;;;3.57;;
15516;SDS011;7860;52.030;5.572;2023-07-29T03:41:33;8.72;;;3.71;;
15516;SDS011;7860;52.030;5.572;2023-07-29T03:42:33;6.55;;;3.14;;
15516;SDS011;7860;52.030;5.572;2023-07-29T03:43:33;7.98;;;3.41;;
15516;SDS011;7860;52.030;5.572;2023-07-29T03:44:33;6.70;;;3.12;;
15516;SDS011;7860;52.030;5.572;2023-07-29T03:45:33;6.52;;;3.32;;
15516;SDS011;7860;52.030;5.572;2023-07-29T03:46:33;7.31;;;3.20;;
15516;SDS011;7860;52.030;5.572;2023-07-29T03:47:33;7.44;;;3.18;;
15516;SDS011;7860;52.030;5.572;2023-07-29T03:48:33;6.28;;;3.16;;
15516;SDS011;7860;52.030;5.572;2023-07-29T03:49:33;7.44;;;2.84;;
15516;SDS011;7860;52.030;5.572;2023-07-29T03:50:33;6.49;;;2.83;;
15516;SDS011;7860;52.030;5.572;2023-07-29T03:51:33;7.00;;;3.16;;
15516;SDS011;7860;52.030;5.572;2023-07-29T03:52:33;8.26;;;3.13;;
15516;SDS011;7860;52.030;5.572;2023-07-29T03:53:33;7.37;;;3.09;;
15516;SDS011;7860;52.030;5.572;2023-07-29T03:54:33;7.20;;;2.86;;
15516;SDS011;7860;52.030;5.572;2023-07-29T03:55:33;6.53;;;2.86;;
15516;SDS011;7860;52.030;5.572;2023-07-29T03:56:34;9.34;;;3.17;;
15516;SDS011;7860;52.030;5.572;2023-07-29T03:57:34;6.67;;;2.92;;
15516;SDS011;7860;52.030;5.572;2023-07-29T03:58:34;8.03;;;3.02;;
15516;SDS011;7860;52.030;5.572;2023-07-29T03:59:34;6.97;;;3.03;;
15516;SDS011;7860;52.030;5.572;2023-07-29T04:00:34;7.88;;;3.25;;
15516;SDS011;7860;52.030;5.572;2023-07-29T04:01:34;6.40;;;2.77;;
15516;SDS011;7860;52.030;5.572;2023-07-29T04:02:34;6.63;;;2.76;;
15516;SDS011;7860;52.030;5.572;2023-07-29T04:03:34;6.89;;;3.01;;
15516;SDS011;7860;52.030;5.572;2023-07-29T04:04:34;6.97;;;2.95;;
15516;SDS011;7860;52.030;5.572;2023-07-29T04:05:34;7.92;;;2.84;;
15516;SDS011;7860;52.030;5.572;2023-07-29T04:06:34;6.85;;;3.07;;
15516;SDS011;7860;52.030;5.572;2023-07-29T04:07:34;6.61;;;3.05;;
15516;SDS011;7860;52.030;5.572;2023-07-29T04:08:34;6.90;;;2.98;;
15516;SDS011;7860;52.030;5.572;2023-07-29T04:09:34;5.86;;;2.87;;
15516;SDS011;7860;52.030;5.572;2023-07-29T04:10:35;6.18;;;2.72;;
15516;SDS011;7860;52.030;5.572;2023-07-29T04:11:35;6.93;;;2.96;;
15516;SDS011;7860;52.030;5.572;2023-07-29T04:12:35;7.65;;;3.09;;
15516;SDS011;7860;52.030;5.572;2023-07-29T04:13:35;5.80;;;2.95;;
15516;SDS011;7860;52.030;5.572;2023-07-29T04:14:35;6.31;;;2.71;;
15516;SDS011;7860;52.030;5.572;2023-07-29T04:15:35;6.54;;;2.89;;
15516;SDS011;7860;52.030;5.572;2023-07-29T04:16:35;7.00;;;3.15;;
15516;SDS011;7860;52.030;5.572;2023-07-29T04:17:35;7.93;;;3.19;;
15516;SDS011;7860;52.030;5.572;2023-07-29T04:18:35;6.24;;;2.97;;
15516;SDS011;7860;52.030;5.572;2023-07-29T04:19:35;6.49;;;2.96;;
15516;SDS011;7860;52.030;5.572;2023-07-29T04:20:35;7.21;;;3.07;;
15516;SDS011;7860;52.030;5.572;2023-07-29T04:21:35;6.51;;;2.68;;
15516;SDS011;7860;52.030;5.572;2023-07-29T04:22:35;6.30;;;2.90;;
15516;SDS011;7860;52.030;5.572;2023-07-29T04:23:36;7.10;;;2.78;;
15516;SDS011;7860;52.030;5.572;2023-07-29T04:24:36;7.46;;;2.95;;
15516;SDS011;7860;52.030;5.572;2023-07-29T04:25:36;6.55;;;2.82;;
15516;SDS011;7860;52.030;5.572;2023-07-29T04:26:36;6.05;;;2.38;;
15516;SDS011;7860;52.030;5.572;2023-07-29T04:27:36;6.55;;;2.89;;
15516;SDS011;7860;52.030;5.572;2023-07-29T04:28:36;5.95;;;2.84;;
15516;SDS011;7860;52.030;5.572;2023-07-29T04:29:36;7.53;;;2.76;;
15516;SDS011;7860;52.030;5.572;2023-07-29T04:30:36;6.63;;;2.81;;
15516;SDS011;7860;52.030;5.572;2023-07-29T04:31:36;5.74;;;2.50;;
15516;SDS011;7860;52.030;5.572;2023-07-29T04:32:36;5.93;;;2.42;;
15516;SDS011;7860;52.030;5.572;2023-07-29T04:33:36;6.41;;;2.68;;
15516;SDS011;7860;52.030;5.572;2023-07-29T04:34:36;5.74;;;2.70;;
15516;SDS011;7860;52.030;5.572;2023-07-29T04:35:36;6.23;;;2.61;;
15516;SDS011;7860;52.030;5.572;2023-07-29T04:36:37;6.85;;;2.53;;
15516;SDS011;7860;52.030;5.572;2023-07-29T04:37:37;7.51;;;2.67;;
15516;SDS011;7860;52.030;5.572;2023-07-29T04:38:37;5.76;;;2.69;;
15516;SDS011;7860;52.030;5.572;2023-07-29T04:39:37;5.46;;;2.32;;
15516;SDS011;7860;52.030;5.572;2023-07-29T04:40:37;7.37;;;2.43;;
15516;SDS011;7860;52.030;5.572;2023-07-29T04:41:37;5.74;;;2.35;;
15516;SDS011;7860;52.030;5.572;2023-07-29T04:42:37;6.58;;;2.49;;
15516;SDS011;7860;52.030;5.572;2023-07-29T04:43:37;5.02;;;2.43;;
15516;SDS011;7860;52.030;5.572;2023-07-29T04:44:37;5.44;;;2.64;;
15516;SDS011;7860;52.030;5.572;2023-07-29T04:45:41;7.62;;;2.73;;
15516;SDS011;7860;52.030;5.572;2023-07-29T04:46:37;4.96;;;2.39;;
15516;SDS011;7860;52.030;5.572;2023-07-29T04:47:37;6.28;;;2.66;;
15516;SDS011;7860;52.030;5.572;2023-07-29T04:48:37;6.72;;;2.51;;
15516;SDS011;7860;52.030;5.572;2023-07-29T04:49:38;7.08;;;2.52;;
15516;SDS011;7860;52.030;5.572;2023-07-29T04:50:38;5.96;;;2.46;;
15516;SDS011;7860;52.030;5.572;2023-07-29T04:51:38;7.24;;;2.61;;
15516;SDS011;7860;52.030;5.572;2023-07-29T04:52:38;5.47;;;2.49;;
15516;SDS011;7860;52.030;5.572;2023-07-29T04:53:38;8.67;;;2.88;;
15516;SDS011;7860;52.030;5.572;2023-07-29T04:54:38;6.38;;;2.52;;
15516;SDS011;7860;52.030;5.572;2023-07-29T04:55:38;5.47;;;2.67;;
15516;SDS011;7860;52.030;5.572;2023-07-29T04:56:38;5.61;;;2.46;;
15516;SDS011;7860;52.030;5.572;2023-07-29T04:57:38;6.18;;;2.71;;
15516;SDS011;7860;52.030;5.572;2023-07-29T04:58:38;5.26;;;2.34;;
15516;SDS011;7860;52.030;5.572;2023-07-29T04:59:38;5.32;;;2.46;;
15516;SDS011;7860;52.030;5.572;2023-07-29T05:00:38;5.89;;;2.62;;
15516;SDS011;7860;52.030;5.572;2023-07-29T05:01:39;6.70;;;2.33;;
15516;SDS011;7860;52.030;5.572;2023-07-29T05:02:39;5.68;;;2.59;;
15516;SDS011;7860;52.030;5.572;2023-07-29T05:03:39;5.68;;;2.45;;
15516;SDS011;7860;52.030;5.572;2023-07-29T05:04:39;6.18;;;2.72;;
15516;SDS011;7860;52.030;5.572;2023-07-29T05:05:39;5.45;;;2.29;;
15516;SDS011;7860;52.030;5.572;2023-07-29T05:06:39;5.40;;;2.51;;
15516;SDS011;7860;52.030;5.572;2023-07-29T05:07:39;5.60;;;2.36;;
15516;SDS011;7860;52.030;5.572;2023-07-29T05:08:39;5.57;;;2.63;;
15516;SDS011;7860;52.030;5.572;2023-07-29T05:09:39;5.16;;;2.50;;
15516;SDS011;7860;52.030;5.572;2023-07-29T05:10:39;5.05;;;2.42;;
15516;SDS011;7860;52.030;5.572;2023-07-29T05:11:39;4.96;;;2.33;;
15516;SDS011;7860;52.030;5.572;2023-07-29T05:12:39;6.62;;;2.61;;
15516;SDS011;7860;52.030;5.572;2023-07-29T05:13:39;5.65;;;2.48;;
15516;SDS011;7860;52.030;5.572;2023-07-29T05:14:40;5.32;;;2.34;;
15516;SDS011;7860;52.030;5.572;2023-07-29T05:15:40;6.00;;;2.43;;
15516;SDS011;7860;52.030;5.572;2023-07-29T05:16:40;5.39;;;2.40;;
15516;SDS011;7860;52.030;5.572;2023-07-29T05:17:40;6.65;;;2.93;;
15516;SDS011;7860;52.030;5.572;2023-07-29T05:18:40;6.48;;;2.80;;
15516;SDS011;7860;52.030;5.572;2023-07-29T05:19:40;6.43;;;2.56;;
15516;SDS011;7860;52.030;5.572;2023-07-29T05:20:40;6.47;;;2.62;;
15516;SDS011;7860;52.030;5.572;2023-07-29T05:21:40;5.63;;;2.49;;
15516;SDS011;7860;52.030;5.572;2023-07-29T05:22:40;5.26;;;2.55;;
15516;SDS011;7860;52.030;5.572;2023-07-29T05:23:40;6.53;;;2.85;;
15516;SDS011;7860;52.030;5.572;2023-07-29T05:24:40;5.77;;;2.66;;
15516;SDS011;7860;52.030;5.572;2023-07-29T05:25:40;7.03;;;2.80;;
15516;SDS011;7860;52.030;5.572;2023-07-29T05:26:40;6.57;;;2.74;;
15516;SDS011;7860;52.030;5.572;2023-07-29T05:27:41;6.05;;;2.51;;
15516;SDS011;7860;52.030;5.572;2023-07-29T05:28:41;5.91;;;2.60;;
15516;SDS011;7860;52.030;5.572;2023-07-29T05:29:41;6.27;;;2.63;;
15516;SDS011;7860;52.030;5.572;2023-07-29T05:30:41;5.65;;;2.55;;
15516;SDS011;7860;52.030;5.572;2023-07-29T05:31:41;8.52;;;2.81;;
15516;SDS011;7860;52.030;5.572;2023-07-29T05:32:41;6.68;;;2.46;;
15516;SDS011;7860;52.030;5.572;2023-07-29T05:33:41;6.91;;;2.80;;
15516;SDS011;7860;52.030;5.572;2023-07-29T05:34:41;7.04;;;2.87;;
15516;SDS011;7860;52.030;5.572;2023-07-29T05:35:41;6.38;;;2.63;;
15516;SDS011;7860;52.030;5.572;2023-07-29T05:36:41;7.59;;;2.90;;
15516;SDS011;7860;52.030;5.572;2023-07-29T05:37:41;6.75;;;2.78;;
15516;SDS011;7860;52.030;5.572;2023-07-29T05:38:41;6.53;;;2.78;;
15516;SDS011;7860;52.030;5.572;2023-07-29T05:39:41;6.40;;;2.67;;
15516;SDS011;7860;52.030;5.572;2023-07-29T05:40:42;7.02;;;2.67;;
15516;SDS011;7860;52.030;5.572;2023-07-29T05:41:42;7.57;;;2.80;;
15516;SDS011;7860;52.030;5.572;2023-07-29T05:42:42;5.87;;;2.72;;
15516;SDS011;7860;52.030;5.572;2023-07-29T05:43:42;5.68;;;2.75;;
15516;SDS011;7860;52.030;5.572;2023-07-29T05:44:42;6.68;;;2.95;;
15516;SDS011;7860;52.030;5.572;2023-07-29T05:45:42;6.80;;;2.95;;
15516;SDS011;7860;52.030;5.572;2023-07-29T05:46:42;6.82;;;2.68;;
15516;SDS011;7860;52.030;5.572;2023-07-29T05:47:42;6.07;;;2.65;;
15516;SDS011;7860;52.030;5.572;2023-07-29T05:48:42;8.17;;;3.18;;
15516;SDS011;7860;52.030;5.572;2023-07-29T05:49:42;7.36;;;2.88;;
15516;SDS011;7860;52.030;5.572;2023-07-29T05:50:42;7.18;;;3.03;;
15516;SDS011;7860;52.030;5.572;2023-07-29T05:51:42;8.27;;;3.29;;
15516;SDS011;7860;52.030;5.572;2023-07-29T05:52:42;6.49;;;3.08;;
15516;SDS011;7860;52.030;5.572;2023-07-29T05:53:42;6.02;;;3.08;;
15516;SDS011;7860;52.030;5.572;2023-07-29T05:54:43;6.37;;;3.06;;
15516;SDS011;7860;52.030;5.572;2023-07-29T05:55:43;8.43;;;3.31;;
15516;SDS011;7860;52.030;5.572;2023-07-29T05:56:43;8.49;;;3.12;;
15516;SDS011;7860;52.030;5.572;2023-07-29T05:57:43;6.35;;;3.05;;
15516;SDS011;7860;52.030;5.572;2023-07-29T05:58:43;7.67;;;3.26;;
15516;SDS011;7860;52.030;5.572;2023-07-29T05:59:43;7.31;;;3.27;;
15516;SDS011;7860;52.030;5.572;2023-07-29T06:00:43;7.03;;;3.02;;
15516;SDS011;7860;52.030;5.572;2023-07-29T06:01:43;7.66;;;3.15;;
15516;SDS011;7860;52.030;5.572;2023-07-29T06:02:43;7.12;;;3.22;;
15516;SDS011;7860;52.030;5.572;2023-07-29T06:03:43;6.72;;;3.16;;
15516;SDS011;7860;52.030;5.572;2023-07-29T06:04:43;7.36;;;3.63;;
15516;SDS011;7860;52.030;5.572;2023-07-29T06:05:43;6.46;;;2.92;;
15516;SDS011;7860;52.030;5.572;2023-07-29T06:06:43;7.39;;;3.21;;
15516;SDS011;7860;52.030;5.572;2023-07-29T06:07:43;7.15;;;2.99;;
15516;SDS011;7860;52.030;5.572;2023-07-29T06:08:44;8.76;;;3.27;;